METAR Data
IDs: Format: Raw Decoded Include TAF

Data at: 1940 UTC 25 Sep 2020

K82C 251935Z AUTO 16015KT 10SM CLR 26/17 A2980 RMK AO2 T02600168
K82C 251915Z AUTO 17013G21KT 10SM CLR 26/17 A2980 RMK AO2 T02550165
K82C 251855Z AUTO 19011G22KT 10SM CLR 25/16 A2980 RMK AO2 T02520163
K82C 251835Z AUTO 20010KT 10SM CLR 25/17 A2982 RMK AO2 T02500165
K82C 251815Z AUTO 18015G18KT 10SM CLR 25/17 A2983 RMK AO2 T02490165
K82C 251755Z AUTO 18012G20KT 10SM CLR 25/16 A2984 RMK AO2 T02450163 10247 20158
K82C 251735Z AUTO 17012G17KT 10SM CLR 24/17 A2985 RMK AO2 T02440166
K82C 251715Z AUTO 17012G17KT 10SM CLR 24/16 A2986 RMK AO2 T02390162
K82C 251655Z AUTO 20009KT 160V220 10SM CLR 24/16 A2987 RMK AO2 T02380162
K82C 251635Z AUTO 17010KT 10SM CLR 23/16 A2988 RMK AO2 T02310160
K82C 251615Z AUTO 19009G18KT 10SM CLR 23/16 A2988 RMK AO2 T02260158
K82C 251555Z AUTO 18007G17KT 10SM CLR 22/15 A2988 RMK AO2 T02190152
K82C 251535Z AUTO 19009KT 10SM CLR 22/15 A2990 RMK AO2 T02160154
K82C 251515Z AUTO 18008KT 10SM CLR 21/16 A2990 RMK AO2 T02090155
K82C 251455Z AUTO 18009G15KT 10SM CLR 20/15 A2990 RMK AO2 T01980149
K82C 251435Z AUTO 18008KT 10SM CLR 19/15 A2990 RMK AO2 T01910147
K82C 251415Z AUTO 17008KT 10SM CLR 19/14 A2990 RMK AO2 T01850144
K82C 251355Z AUTO 17010KT 10SM CLR 18/14 A2990 RMK AO2 T01810141
K82C 251335Z AUTO 18008KT 7SM CLR 17/14 A2990 RMK AO2 T01740140
K82C 251315Z AUTO 17008KT 7SM CLR 17/14 A2990 RMK AO2 T01700140
K82C 251255Z AUTO 19006KT 7SM SCT060 16/14 A2990 RMK AO2 T01640138
K82C 251235Z AUTO 19005KT 7SM SCT045 SCT050 BKN060 16/14 A2990 RMK AO2 T01620140
K82C 251215Z AUTO 18006KT 5SM BR BKN045 16/14 A2990 RMK AO2 T01580140
K82C 251155Z AUTO 18006KT 7SM SCT045 16/14 A2989 RMK AO2 70020 T01570141 10161 20138
K82C 251135Z AUTO 18007KT 7SM CLR 16/14 A2988 RMK AO2 T01580143
K82C 251115Z AUTO 18006KT 7SM CLR 16/15 A2988 RMK AO2 T01580145
K82C 251055Z AUTO 18009KT 7SM CLR 16/15 A2987 RMK AO2 T01590145
K82C 251035Z AUTO 18007KT 7SM SCT044 16/15 A2988 RMK AO2 T01570146
K82C 251015Z AUTO 18007KT 7SM SCT044 SCT060 16/15 A2988 RMK AO2 T01600150
K82C 250955Z AUTO 19008KT 7SM CLR 16/15 A2988 RMK AO2 T01600151
K82C 250935Z AUTO 19007KT 10SM CLR 16/15 A2988 RMK AO2 T01600152
K82C 250915Z AUTO 19007KT 10SM CLR 16/16 A2987 RMK AO2 T01580155
K82C 250855Z AUTO 19008KT 10SM CLR 16/16 A2987 RMK AO2 T01560156
K82C 250835Z AUTO 18006KT 10SM CLR 15/15 A2986 RMK AO2 T01540154
K82C 250815Z AUTO 18005KT 7SM SCT045 15/15 A2986 RMK AO2 T01490149
K82C 250755Z AUTO 17005KT 7SM SCT045 15/15 A2987 RMK AO2 T01460146
K82C 250735Z AUTO 18003KT 5SM BR SCT003 14/14 A2987 RMK AO2 T01400140
K82C 250715Z AUTO 16003KT 1/2SM FG OVC003 14/14 A2987 RMK AO2 T01430143
K82C 250655Z AUTO 16003KT 1/2SM FG OVC003 14/14 A2987 RMK AO2 T01430143
K82C 250635Z AUTO 15003KT 3/4SM BR BKN001 OVC049 15/15 A2987 RMK AO2 T01500150
K82C 250615Z AUTO 15004KT M1/4SM FG OVC001 15/15 A2987 RMK AO2 T01500150
K82C 250555Z AUTO 14004KT 1/4SM FG OVC001 15/15 A2987 RMK AO2 T01500150 10183 20150 402010150
K82C 250535Z AUTO 14003KT 1/4SM FG OVC001 15/15 A2987 RMK AO2 T01500150
K82C 250515Z AUTO 14004KT 1/2SM FG OVC001 16/16 A2987 RMK AO2 T01550155
K82C 250455Z AUTO 14003KT 1/4SM FG OVC003 16/16 A2987 RMK AO2 T01590159
K82C 250435Z AUTO 00000KT 1/4SM FG OVC003 16/16 A2988 RMK AO2 T01610161
K82C 250415Z AUTO 00000KT 1/4SM FG OVC003 16/16 A2987 RMK AO2 T01640164
K82C 250355Z AUTO 00000KT 1/4SM FG OVC003 17/17 A2988 RMK AO2 T01660166
K82C 250335Z AUTO 14003KT 1/4SM FG OVC003 17/17 A2988 RMK AO2 T01660166
K82C 250315Z AUTO 00000KT 1/4SM FG OVC003 16/16 A2988 RMK AO2 T01560156
K82C 250255Z AUTO 00000KT 1/4SM FG OVC003 16/16 A2988 RMK AO2 T01570156
K82C 250235Z AUTO 00000KT 1/4SM FG OVC003 16/15 A2988 RMK AO2 T01550154
K82C 250215Z AUTO 00000KT 1/2SM FG SCT003 BKN028 OVC045 16/16 A2988 RMK AO2 T01620161
K82C 250155Z AUTO 00000KT 1/2SM FG BKN030 OVC047 17/17 A2988 RMK AO2 T01660165
K82C 250135Z AUTO 00000KT 1/2SM FG SCT002 BKN032 OVC045 17/16 A2987 RMK AO2 T01650164
K82C 250115Z AUTO 00000KT 1/4SM FG BKN002 OVC034 17/17 A2987 RMK AO2 T01710170
K82C 250055Z AUTO 00000KT 3/4SM BR OVC035 18/17 A2986 RMK AO2 T01750173
K82C 250035Z AUTO 00000KT 5SM BR SCT032 OVC038 18/18 A2986 RMK AO2 T01780175
K82C 250015Z AUTO 00000KT 7SM OVC032 18/18 A2986 RMK AO2 T01800175
K82C 242355Z AUTO 00000KT 5SM BR BKN034 OVC041 19/18 A2986 RMK AO2 60018 T01850176 10194 20175
K82C 242335Z AUTO 00000KT 5SM BR BKN036 BKN044 19/18 A2986 RMK AO2 T01860175
K82C 242315Z AUTO 00000KT 5SM BR BKN038 BKN048 19/17 A2986 RMK AO2 T01900172
K82C 242255Z AUTO 00000KT 7SM BKN040 OVC047 19/18 A2986 RMK AO2 T01930179
K82C 242235Z AUTO 00000KT 7SM SCT013 BKN038 OVC060 19/18 A2986 RMK AO2 T01900176
K82C 242215Z AUTO 00000KT 7SM BKN013 BKN018 OVC033 19/18 A2986 RMK AO2 T01910178
K82C 242155Z AUTO 27003KT 7SM OVC013 19/18 A2986 RMK AO2 T01900178
K82C 242135Z AUTO 00000KT 7SM OVC011 19/18 A2986 RMK AO2 T01900179
K82C 242115Z AUTO 00000KT 7SM OVC011 19/18 A2986 RMK AO2 T01860175
K82C 242055Z AUTO 00000KT 7SM -DZ OVC011 19/18 A2985 RMK AO2 60018 T01870175
K82C 242035Z AUTO 00000KT 7SM -DZ BKN013 BKN036 OVC046 19/18 A2985 RMK AO2 T01880178
K82C 242015Z AUTO 23003KT 7SM RA SCT039 BKN049 OVC100 19/17 A2984 RMK AO2 T01860173
K82C 241955Z AUTO 00000KT 7SM RA SCT046 SCT055 OVC100 19/17 A2984 RMK AO2 P0003 T01850173
K82C 241935Z AUTO 21004KT 5SM -RA SCT042 SCT048 OVC110 18/17 A2983 RMK AO2 P0002 T01820172
K82C 241915Z AUTO 19007KT 5SM -RA OVC100 18/17 A2982 RMK AO2 P0002 T01780170
K82C 241855Z AUTO 17009G15KT 5SM -RA OVC090 18/17 A2982 RMK AO2 P0015 T01750165
K82C 241835Z AUTO 15012KT 4SM RA SCT034 SCT055 OVC090 18/17 A2983 RMK AO2 P0011 T01750167
K82C 241815Z AUTO 17006KT 5SM RA OVC100 18/17 A2986 RMK AO2 P0002 T01750167
K82C 241755Z AUTO 16005KT 5SM RA SCT070 OVC100 18/17 A2987 RMK AO2 P0002 60002 T01770168 10201 20155
K82C 241735Z AUTO 17004KT 7SM -RA SCT031 OVC070 18/17 A2988 RMK AO2 T01810166
K82C 241715Z AUTO 16003KT 7SM -RA SCT029 BKN075 OVC110 19/16 A2988 RMK AO2 T01850163
K82C 241655Z AUTO 18004KT 7SM SCT035 SCT065 OVC110 19/16 A2988 RMK AO2 T01870162
K82C 241635Z AUTO 19005KT 10SM SCT036 BKN060 OVC120 19/16 A2989 RMK AO2 T01900161
K82C 241615Z AUTO 17003KT 10SM SCT036 SCT044 OVC050 19/16 A2990 RMK AO2 T01930161
K82C 241555Z AUTO 16004KT 10SM SCT047 BKN055 BKN075 20/16 A2990 RMK AO2 T01980162
K82C 241535Z AUTO 20004KT 10SM SCT047 20/16 A2990 RMK AO2 T02010160
K82C 241515Z AUTO 21004KT 10SM CLR 20/16 A2989 RMK AO2 T02000159
K82C 241455Z AUTO 19005KT 7SM CLR 20/16 A2990 RMK AO2 T01980160
K82C 241435Z AUTO 19006KT 10SM SCT110 19/16 A2990 RMK AO2 T01870155
K82C 241415Z AUTO 15004KT 7SM CLR 19/16 A2988 RMK AO2 T01900155
K82C 241355Z AUTO 19003KT 7SM SCT050 19/15 A2989 RMK AO2 T01860153
K82C 241335Z AUTO 17003KT 7SM SCT046 SCT060 18/15 A2988 RMK AO2 T01810151
K82C 241315Z AUTO 16003KT 7SM SCT044 BKN050 17/15 A2990 RMK AO2 T01720150
K82C 241255Z AUTO 15004KT 7SM SCT045 OVC050 17/15 A2990 RMK AO2 T01700145
K82C 241235Z AUTO 15003KT 10SM BKN050 17/15 A2989 RMK AO2 T01670145
K82C 241215Z AUTO 17004KT 7SM SCT048 16/14 A2988 RMK AO2 T01550142
K82C 241155Z AUTO 00000KT 10SM BKN048 16/14 A2988 RMK AO2 T01620143 10190 20153
K82C 241135Z AUTO 00000KT 10SM SCT046 15/14 A2990 RMK AO2 T01530141
K82C 241115Z AUTO 00000KT 10SM CLR 15/14 A2989 RMK AO2 T01530142
K82C 241055Z AUTO 00000KT 10SM CLR 16/14 A2990 RMK AO2 T01600143
K82C 241035Z AUTO 00000KT 10SM CLR 17/14 A2990 RMK AO2 T01730142
K82C 241015Z AUTO 00000KT 10SM CLR 17/14 A2990 RMK AO2 T01740142
K82C 240955Z AUTO 00000KT 10SM CLR 18/14 A2990 RMK AO2 T01780142
K82C 240935Z AUTO 24004KT 10SM CLR 18/14 A2989 RMK AO2 T01790141
K82C 240915Z AUTO 24003KT 10SM SCT120 18/14 A2989 RMK AO2 T01830142
K82C 240855Z AUTO 23003KT 10SM CLR 19/14 A2988 RMK AO2 T01850143
K82C 240835Z AUTO 21007KT 10SM CLR 19/14 A2988 RMK AO2 T01860143
K82C 240815Z AUTO 20006KT 10SM CLR 19/14 A2988 RMK AO2 T01850143
K82C 240755Z AUTO 21004KT 10SM CLR 19/14 A2990 RMK AO2 T01850143